Time;durP1;ratioP1;P1;durP2;ratioP2;P2;SDS_P1;SDS_P2;PMS_P1;PMS_P2;Temp;Humidity;BMP_temperature;BMP_pressure;BME280_temperature;BME280_humidity;BME280_pressure;Samples;Min_cycle;Max_cycle;Signal;HPM_P1;HPM_P2
2021/06/05 00:00:45;;;;;;;58.45;49.08;;;;;;;;;;5061300;28;20176;-73
2021/06/05 00:03:12;;;;;;;60.70;48.90;;;;;;;;;;5060780;28;20230;-72
2021/06/05 00:05:39;;;;;;;59.03;47.03;;;;;;;;;;5051101;28;20255;-73
2021/06/05 00:08:05;;;;;;;59.38;46.80;;;;;;;;;;5056282;28;20185;-73
2021/06/05 00:10:33;;;;;;;54.42;43.58;;;;;;;;;;5064641;28;20208;-73
2021/06/05 00:12:58;;;;;;;61.90;50.30;;;;;;;;;;5055387;28;20201;-74
2021/06/05 00:15:26;;;;;;;61.60;48.40;;;;;;;;;;5053569;28;20177;-72
2021/06/05 00:17:51;;;;;;;60.08;48.40;;;;;;;;;;5057285;28;20213;-72
2021/06/05 00:20:17;;;;;;;63.03;48.15;;;;;;;;;;5060739;28;20188;-72
2021/06/05 00:22:42;;;;;;;64.22;49.42;;;;;;;;;;5056033;28;20728;-71
2021/06/05 00:25:09;;;;;;;65.93;50.78;;;;;;;;;;5062505;28;20177;-72
2021/06/05 00:27:35;;;;;;;63.75;49.70;;;;;;;;;;5066413;28;20657;-73
2021/06/05 00:30:00;;;;;;;64.40;50.42;;;;;;;;;;5061494;28;20180;-73
2021/06/05 00:32:25;;;;;;;62.72;48.58;;;;;;;;;;5059537;28;20232;-73
2021/06/05 00:34:50;;;;;;;62.03;48.83;;;;;;;;;;5057219;28;20184;-73
2021/06/05 00:37:15;;;;;;;65.73;47.70;;;;;;;;;;5059748;28;20497;-73
2021/06/05 00:39:42;;;;;;;60.27;46.70;;;;;;;;;;5061849;28;20463;-73
2021/06/05 00:42:07;;;;;;;59.45;47.80;;;;;;;;;;5067575;28;20494;-71
2021/06/05 00:44:32;;;;;;;67.13;49.10;;;;;;;;;;5059122;28;20202;-72
2021/06/05 00:46:58;;;;;;;61.80;47.30;;;;;;;;;;5060258;28;20185;-73
2021/06/05 00:49:23;;;;;;;65.03;48.85;;;;;;;;;;5061939;28;20439;-73
2021/06/05 00:51:50;;;;;;;66.88;52.35;;;;;;;;;;5063037;28;20235;-73
2021/06/05 00:54:16;;;;;;;66.38;52.28;;;;;;;;;;5059634;28;20192;-73
2021/06/05 00:56:42;;;;;;;67.70;52.22;;;;;;;;;;5062033;28;20181;-73
2021/06/05 00:59:08;;;;;;;65.78;50.13;;;;;;;;;;5061203;28;20998;-73
2021/06/05 01:01:33;;;;;;;65.93;49.95;;;;;;;;;;5063854;28;20182;-72
2021/06/05 01:03:59;;;;;;;67.90;50.13;;;;;;;;;;5059297;28;20282;-72
2021/06/05 01:06:37;;;;;;;64.55;50.83;;;;;;;;;;5065344;28;20174;-73
2021/06/05 01:09:21;;;;;;;75.75;51.50;;;;;;;;;;5062435;28;20189;-73
2021/06/05 01:11:51;;;;;;;73.90;51.03;;;;;;;;;;5069107;28;20187;-72
2021/06/05 01:14:16;;;;;;;69.95;51.67;;;;;;;;;;5060059;28;20423;-73
2021/06/05 01:16:43;;;;;;;69.60;51.35;;;;;;;;;;5059134;28;20315;-73
2021/06/05 01:19:11;;;;;;;68.07;49.90;;;;;;;;;;5053967;28;20176;-73
2021/06/05 01:21:45;;;;;;;73.30;52.17;;;;;;;;;;5061684;28;20180;-73
2021/06/05 01:24:10;;;;;;;75.05;52.22;;;;;;;;;;5057317;28;20209;-73
2021/06/05 01:26:40;;;;;;;70.00;52.33;;;;;;;;;;5059757;28;20596;-72
2021/06/05 01:29:26;;;;;;;74.80;54.65;;;;;;;;;;5055879;28;20438;-72
2021/06/05 01:31:52;;;;;;;74.35;51.85;;;;;;;;;;5068036;28;20188;-72
2021/06/05 01:34:18;;;;;;;71.07;51.53;;;;;;;;;;5063880;28;20339;-72
2021/06/05 01:36:46;;;;;;;72.15;51.15;;;;;;;;;;5058635;28;20189;-72
2021/06/05 01:39:13;;;;;;;71.05;52.45;;;;;;;;;;5064945;28;20204;-72
2021/06/05 01:41:39;;;;;;;73.18;51.50;;;;;;;;;;5065731;28;20271;-72
2021/06/05 01:44:06;;;;;;;71.63;51.70;;;;;;;;;;5057299;28;20194;-72
2021/06/05 01:46:34;;;;;;;73.68;52.17;;;;;;;;;;5061096;28;20177;-73
2021/06/05 01:49:00;;;;;;;70.10;50.80;;;;;;;;;;5059884;28;20196;-73
2021/06/05 01:51:25;;;;;;;71.68;51.78;;;;;;;;;;5060009;28;20182;-73
2021/06/05 01:53:52;;;;;;;70.80;51.35;;;;;;;;;;5056654;28;20287;-73
2021/06/05 01:56:30;;;;;;;70.80;46.67;;;;;;;;;;5064088;28;20205;-73
2021/06/05 01:58:55;;;;;;;62.72;44.67;;;;;;;;;;5060830;28;20251;-72
2021/06/05 02:01:21;;;;;;;64.65;46.22;;;;;;;;;;5059892;28;20186;-73
2021/06/05 02:03:46;;;;;;;68.38;45.30;;;;;;;;;;5053800;28;20226;-73
2021/06/05 02:06:11;;;;;;;72.78;46.38;;;;;;;;;;5059822;28;20191;-73
2021/06/05 02:08:37;;;;;;;66.15;45.72;;;;;;;;;;5058025;28;20275;-72
2021/06/05 02:11:04;;;;;;;66.83;43.83;;;;;;;;;;5062161;28;20597;-73
2021/06/05 02:13:37;;;;;;;66.85;43.38;;;;;;;;;;5059105;28;20436;-72
2021/06/05 02:16:08;;;;;;;63.90;44.83;;;;;;;;;;5066413;28;20181;-73
2021/06/05 02:18:34;;;;;;;63.15;42.17;;;;;;;;;;5055204;28;20698;-73
2021/06/05 02:21:05;;;;;;;65.60;43.95;;;;;;;;;;5061558;28;20571;-73
2021/06/05 02:23:37;;;;;;;61.17;42.83;;;;;;;;;;5060335;28;20196;-73
2021/06/05 02:26:02;;;;;;;63.13;42.15;;;;;;;;;;5062216;28;20184;-73
2021/06/05 02:28:28;;;;;;;61.17;39.17;;;;;;;;;;5054802;28;20260;-73
2021/06/05 02:30:53;;;;;;;55.35;36.53;;;;;;;;;;5063576;28;20267;-73
2021/06/05 02:33:18;;;;;;;54.17;36.05;;;;;;;;;;5059400;28;20205;-73
2021/06/05 02:35:45;;;;;;;48.22;32.72;;;;;;;;;;5056802;28;20204;-73
2021/06/05 02:38:13;;;;;;;44.20;31.13;;;;;;;;;;5067500;28;20716;-73
2021/06/05 02:40:38;;;;;;;47.42;31.67;;;;;;;;;;5057255;28;20642;-73
2021/06/05 02:43:05;;;;;;;46.72;31.83;;;;;;;;;;5062943;28;20250;-73
2021/06/05 02:45:35;;;;;;;50.85;32.40;;;;;;;;;;5067730;28;20191;-73
2021/06/05 02:48:01;;;;;;;46.92;31.30;;;;;;;;;;5054597;28;20173;-73
2021/06/05 02:50:31;;;;;;;47.33;33.05;;;;;;;;;;5059635;28;20173;-72
2021/06/05 02:52:57;;;;;;;45.92;30.85;;;;;;;;;;5059977;28;20759;-73
2021/06/05 02:55:22;;;;;;;46.38;31.10;;;;;;;;;;5058851;28;20268;-72
2021/06/05 02:57:48;;;;;;;46.53;29.48;;;;;;;;;;5067042;28;20197;-72
2021/06/05 03:00:16;;;;;;;41.45;28.77;;;;;;;;;;5058982;28;20177;-73
2021/06/05 03:02:41;;;;;;;36.40;26.90;;;;;;;;;;5051432;28;20548;-73
2021/06/05 03:05:07;;;;;;;38.42;26.45;;;;;;;;;;5059088;28;20169;-73
2021/06/05 03:07:32;;;;;;;36.78;25.58;;;;;;;;;;5046718;28;20187;-73
2021/06/05 03:09:57;;;;;;;35.35;25.65;;;;;;;;;;5051018;28;20553;-73
2021/06/05 03:12:24;;;;;;;36.17;26.13;;;;;;;;;;5064145;28;20184;-73
2021/06/05 03:14:49;;;;;;;35.72;25.38;;;;;;;;;;5055756;28;20485;-73
2021/06/05 03:17:15;;;;;;;34.03;24.90;;;;;;;;;;5051686;28;20576;-73
2021/06/05 03:19:40;;;;;;;36.45;25.98;;;;;;;;;;5055732;28;20264;-73
2021/06/05 03:22:05;;;;;;;32.87;24.07;;;;;;;;;;5056250;28;20169;-73
2021/06/05 03:24:31;;;;;;;33.20;25.83;;;;;;;;;;5051015;28;20936;-73
2021/06/05 03:26:57;;;;;;;32.13;24.98;;;;;;;;;;5050551;28;20221;-73
2021/06/05 03:29:23;;;;;;;34.58;26.98;;;;;;;;;;5049203;28;20244;-73
2021/06/05 03:31:48;;;;;;;42.63;28.70;;;;;;;;;;5063592;28;20226;-73
2021/06/05 03:34:13;;;;;;;39.50;30.02;;;;;;;;;;5054488;28;20197;-71
2021/06/05 03:36:39;;;;;;;47.60;32.35;;;;;;;;;;5063862;28;20176;-71
2021/06/05 03:39:05;;;;;;;41.13;30.08;;;;;;;;;;5057275;28;20213;-72
2021/06/05 03:41:30;;;;;;;40.33;31.65;;;;;;;;;;5066984;28;20449;-72
2021/06/05 03:43:55;;;;;;;42.47;32.15;;;;;;;;;;5059001;28;20216;-72
2021/06/05 03:46:20;;;;;;;39.17;29.98;;;;;;;;;;5055767;28;20181;-72
2021/06/05 03:48:46;;;;;;;42.90;32.42;;;;;;;;;;5055252;28;20430;-72
2021/06/05 03:51:11;;;;;;;41.90;30.83;;;;;;;;;;5057278;28;20185;-73
2021/06/05 03:53:36;;;;;;;42.50;31.90;;;;;;;;;;5058497;28;20488;-73
2021/06/05 03:56:02;;;;;;;42.13;30.80;;;;;;;;;;5056899;28;20192;-72
2021/06/05 03:58:29;;;;;;;40.50;31.25;;;;;;;;;;5066437;28;20206;-72
2021/06/05 04:00:56;;;;;;;38.80;28.85;;;;;;;;;;5055869;28;20173;-71
2021/06/05 04:03:21;;;;;;;36.90;28.45;;;;;;;;;;5062444;28;20194;-72
2021/06/05 04:05:46;;;;;;;38.50;28.83;;;;;;;;;;5065013;28;20558;-72
2021/06/05 04:08:12;;;;;;;37.30;28.13;;;;;;;;;;5059448;28;20258;-72
2021/06/05 04:10:37;;;;;;;35.80;25.80;;;;;;;;;;5062982;28;20181;-72
2021/06/05 04:13:02;;;;;;;34.95;26.63;;;;;;;;;;5072633;28;20217;-72
2021/06/05 04:15:29;;;;;;;37.40;28.02;;;;;;;;;;5062160;28;20177;-72
2021/06/05 04:18:08;;;;;;;35.83;26.73;;;;;;;;;;5063554;28;20201;-72
2021/06/05 04:20:34;;;;;;;36.25;26.48;;;;;;;;;;5060979;28;20612;-72
2021/06/05 04:22:59;;;;;;;35.38;25.02;;;;;;;;;;5063457;28;20274;-72
2021/06/05 04:25:24;;;;;;;36.00;27.48;;;;;;;;;;5062654;28;20555;-73
2021/06/05 04:27:50;;;;;;;32.45;25.15;;;;;;;;;;5067909;28;20176;-72
2021/06/05 04:30:16;;;;;;;33.28;25.77;;;;;;;;;;5065917;28;20739;-72
2021/06/05 04:32:41;;;;;;;32.83;24.75;;;;;;;;;;5062338;28;20570;-72
2021/06/05 04:35:07;;;;;;;35.58;25.95;;;;;;;;;;5064933;28;20185;-71
2021/06/05 04:37:32;;;;;;;34.40;26.45;;;;;;;;;;5060265;28;20201;-74
2021/06/05 04:39:58;;;;;;;36.70;27.02;;;;;;;;;;5066821;28;20311;-72
2021/06/05 04:42:23;;;;;;;32.53;24.60;;;;;;;;;;5068976;28;20176;-72
2021/06/05 04:44:48;;;;;;;34.05;23.55;;;;;;;;;;5069576;28;20208;-72
2021/06/05 04:47:13;;;;;;;29.50;23.92;;;;;;;;;;5056136;28;20260;-72
2021/06/05 04:49:38;;;;;;;27.73;22.90;;;;;;;;;;5068794;28;20426;-72
2021/06/05 04:52:04;;;;;;;30.02;23.98;;;;;;;;;;5066904;28;20517;-72
2021/06/05 04:54:29;;;;;;;30.13;22.70;;;;;;;;;;5063068;28;20189;-72
2021/06/05 04:56:54;;;;;;;29.47;23.93;;;;;;;;;;5062787;28;20193;-72
2021/06/05 04:59:20;;;;;;;29.80;23.60;;;;;;;;;;5066701;28;20774;-73
2021/06/05 05:01:46;;;;;;;30.80;24.60;;;;;;;;;;5060598;28;20423;-72
2021/06/05 05:04:11;;;;;;;31.27;25.02;;;;;;;;;;5061291;28;20204;-72
2021/06/05 05:06:36;;;;;;;34.03;27.37;;;;;;;;;;5056175;28;20197;-72
2021/06/05 05:09:03;;;;;;;33.15;24.38;;;;;;;;;;5063573;28;20422;-72
2021/06/05 05:11:28;;;;;;;30.65;24.77;;;;;;;;;;5065593;28;20643;-72
2021/06/05 05:13:53;;;;;;;32.80;25.27;;;;;;;;;;5065374;28;20211;-72
2021/06/05 05:16:18;;;;;;;36.90;27.60;;;;;;;;;;5059058;28;20203;-72
2021/06/05 05:18:47;;;;;;;34.55;26.48;;;;;;;;;;5062841;28;20457;-72
2021/06/05 05:21:13;;;;;;;34.40;25.40;;;;;;;;;;5063494;28;20181;-72
2021/06/05 05:23:38;;;;;;;32.38;25.85;;;;;;;;;;5060986;28;20209;-72
2021/06/05 05:26:04;;;;;;;35.35;25.98;;;;;;;;;;5065625;28;20181;-72
2021/06/05 05:28:30;;;;;;;29.55;24.83;;;;;;;;;;5059830;28;20178;-72
2021/06/05 05:30:56;;;;;;;33.80;25.52;;;;;;;;;;5061382;28;20181;-72
2021/06/05 05:33:22;;;;;;;31.90;26.30;;;;;;;;;;5060859;28;20197;-73
2021/06/05 05:35:47;;;;;;;31.08;25.45;;;;;;;;;;5059781;28;20292;-72
2021/06/05 05:38:13;;;;;;;35.15;27.52;;;;;;;;;;5060029;28;20189;-72
2021/06/05 05:40:39;;;;;;;34.22;25.15;;;;;;;;;;5064609;28;20530;-72
2021/06/05 05:43:04;;;;;;;32.03;26.42;;;;;;;;;;5065273;28;20209;-72
2021/06/05 05:45:29;;;;;;;34.28;24.60;;;;;;;;;;5064081;28;20548;-72
2021/06/05 05:47:59;;;;;;;33.00;24.45;;;;;;;;;;5061262;28;20238;-72
2021/06/05 05:50:25;;;;;;;35.75;24.55;;;;;;;;;;5062640;28;20269;-72
2021/06/05 05:52:50;;;;;;;26.00;21.83;;;;;;;;;;5062888;28;20645;-72
2021/06/05 05:55:16;;;;;;;27.85;22.27;;;;;;;;;;5067607;28;20226;-72
2021/06/05 05:57:41;;;;;;;25.30;21.27;;;;;;;;;;5065905;28;20242;-72
2021/06/05 06:00:08;;;;;;;25.42;21.25;;;;;;;;;;5054132;28;20174;-72
2021/06/05 06:02:33;;;;;;;22.50;20.00;;;;;;;;;;5054957;28;20272;-71
2021/06/05 06:04:59;;;;;;;23.73;19.70;;;;;;;;;;5060461;28;20183;-72
2021/06/05 06:07:24;;;;;;;20.48;18.20;;;;;;;;;;5056863;28;20508;-72
2021/06/05 06:09:49;;;;;;;19.73;17.63;;;;;;;;;;5061147;28;20177;-74
2021/06/05 06:12:14;;;;;;;19.83;16.90;;;;;;;;;;5056224;28;20425;-72
2021/06/05 06:14:39;;;;;;;20.50;17.17;;;;;;;;;;5062694;28;20858;-71
2021/06/05 06:17:04;;;;;;;20.42;17.75;;;;;;;;;;5065028;28;20524;-72
2021/06/05 06:19:30;;;;;;;18.97;16.03;;;;;;;;;;5061667;28;20903;-72
2021/06/05 06:21:55;;;;;;;19.55;17.45;;;;;;;;;;5065317;28;20430;-71
2021/06/05 06:24:20;;;;;;;18.05;16.25;;;;;;;;;;5062090;28;20283;-72
2021/06/05 06:26:45;;;;;;;18.40;16.08;;;;;;;;;;5066345;28;20165;-71
2021/06/05 06:29:16;;;;;;;16.95;15.23;;;;;;;;;;5068181;28;20177;-72
2021/06/05 06:31:42;;;;;;;18.20;16.40;;;;;;;;;;5061576;28;20184;-72
2021/06/05 06:34:07;;;;;;;17.65;15.85;;;;;;;;;;5062584;28;20243;-72
2021/06/05 06:36:33;;;;;;;17.27;15.35;;;;;;;;;;5067127;28;20184;-71
2021/06/05 06:38:58;;;;;;;16.77;15.07;;;;;;;;;;5060151;28;20216;-73
2021/06/05 06:41:27;;;;;;;16.83;15.10;;;;;;;;;;5064784;28;20226;-72
2021/06/05 06:43:52;;;;;;;16.10;14.40;;;;;;;;;;5060466;28;20503;-72
2021/06/05 06:46:22;;;;;;;15.75;14.15;;;;;;;;;;5058914;28;20587;-72
2021/06/05 06:48:58;;;;;;;16.08;14.38;;;;;;;;;;5056527;28;20261;-72
2021/06/05 06:51:24;;;;;;;16.67;15.07;;;;;;;;;;5059579;28;20181;-72
2021/06/05 06:53:49;;;;;;;14.98;13.48;;;;;;;;;;5060304;28;20271;-72
2021/06/05 06:56:15;;;;;;;15.10;13.60;;;;;;;;;;5063119;28;20642;-72
2021/06/05 06:58:41;;;;;;;14.07;12.55;;;;;;;;;;5059071;28;20227;-72
2021/06/05 07:01:06;;;;;;;13.93;12.48;;;;;;;;;;5056855;28;20177;-72
2021/06/05 07:03:32;;;;;;;15.35;13.80;;;;;;;;;;5050470;28;20264;-72
2021/06/05 07:05:57;;;;;;;15.20;13.30;;;;;;;;;;5055448;28;20226;-72
2021/06/05 07:08:24;;;;;;;21.88;19.67;;;;;;;;;;5052963;28;20216;-73
2021/06/05 07:10:51;;;;;;;35.10;28.13;;;;;;;;;;5054789;28;20740;-73
2021/06/05 07:13:17;;;;;;;42.08;32.65;;;;;;;;;;5054270;28;20203;-72
2021/06/05 07:15:42;;;;;;;43.83;34.53;;;;;;;;;;5054038;28;20185;-72
2021/06/05 07:18:09;;;;;;;43.00;34.40;;;;;;;;;;5044691;28;20216;-72
2021/06/05 07:20:34;;;;;;;43.92;35.70;;;;;;;;;;5058540;28;20278;-72
2021/06/05 07:22:59;;;;;;;44.63;35.20;;;;;;;;;;5054119;28;20200;-73
2021/06/05 07:25:25;;;;;;;41.15;33.40;;;;;;;;;;5049976;28;20185;-73
2021/06/05 07:27:50;;;;;;;38.13;32.70;;;;;;;;;;5048734;28;20200;-72
2021/06/05 07:30:16;;;;;;;34.40;29.08;;;;;;;;;;5056636;28;20189;-72
2021/06/05 07:32:41;;;;;;;34.00;28.65;;;;;;;;;;5052410;28;20263;-73
2021/06/05 07:35:07;;;;;;;31.90;25.25;;;;;;;;;;5048724;28;20682;-73
2021/06/05 07:37:32;;;;;;;28.55;25.52;;;;;;;;;;5050312;28;20225;-73
2021/06/05 07:39:57;;;;;;;31.80;28.40;;;;;;;;;;5062194;28;20191;-72
2021/06/05 07:42:22;;;;;;;33.20;29.63;;;;;;;;;;5058757;28;20192;-73
2021/06/05 07:44:48;;;;;;;31.90;28.65;;;;;;;;;;5053068;28;20425;-72
2021/06/05 07:47:13;;;;;;;31.50;28.08;;;;;;;;;;5058401;28;20176;-72
2021/06/05 07:49:39;;;;;;;31.40;28.10;;;;;;;;;;5057829;28;20682;-72
2021/06/05 07:52:06;;;;;;;28.45;25.45;;;;;;;;;;5058661;28;20966;-71
2021/06/05 07:54:31;;;;;;;29.92;26.73;;;;;;;;;;5053428;28;20196;-71
2021/06/05 07:56:57;;;;;;;32.55;26.90;;;;;;;;;;5053006;28;20208;-71
2021/06/05 07:59:24;;;;;;;29.67;26.40;;;;;;;;;;5058045;28;20180;-72
2021/06/05 08:01:49;;;;;;;28.70;25.75;;;;;;;;;;5054534;28;20425;-71
2021/06/05 08:04:16;;;;;;;31.38;28.17;;;;;;;;;;5050573;28;20205;-72
2021/06/05 08:06:41;;;;;;;33.00;29.70;;;;;;;;;;5059332;28;20206;-72
2021/06/05 08:09:08;;;;;;;33.00;29.47;;;;;;;;;;5058091;28;20189;-72
2021/06/05 08:11:33;;;;;;;31.48;28.35;;;;;;;;;;5055449;28;20428;-72
2021/06/05 08:13:58;;;;;;;31.00;27.92;;;;;;;;;;5052944;28;20201;-72
2021/06/05 08:16:24;;;;;;;30.90;27.90;;;;;;;;;;5055927;28;20610;-72
2021/06/05 08:18:49;;;;;;;28.33;25.63;;;;;;;;;;5055360;28;20204;-72
2021/06/05 08:21:15;;;;;;;25.77;23.27;;;;;;;;;;5054225;28;20181;-71
2021/06/05 08:23:41;;;;;;;24.60;22.30;;;;;;;;;;5050254;28;20450;-71
2021/06/05 08:26:07;;;;;;;24.38;21.85;;;;;;;;;;5055892;28;20199;-72
2021/06/05 08:28:34;;;;;;;23.85;21.55;;;;;;;;;;5053488;28;20192;-71
2021/06/05 08:31:01;;;;;;;20.98;19.08;;;;;;;;;;5054257;28;20174;-72
2021/06/05 08:33:26;;;;;;;20.42;18.45;;;;;;;;;;5057847;28;20205;-72
2021/06/05 08:35:51;;;;;;;22.35;20.23;;;;;;;;;;5053867;28;20254;-72
2021/06/05 08:38:20;;;;;;;21.27;19.35;;;;;;;;;;5054476;28;20280;-71
2021/06/05 08:40:45;;;;;;;23.58;21.15;;;;;;;;;;5056606;28;20177;-72
2021/06/05 08:43:12;;;;;;;30.02;27.08;;;;;;;;;;5057341;28;20565;-72
2021/06/05 08:45:37;;;;;;;33.03;29.75;;;;;;;;;;5053038;28;20422;-72
2021/06/05 08:48:04;;;;;;;31.38;28.17;;;;;;;;;;5053597;28;20689;-72
2021/06/05 08:50:30;;;;;;;31.70;28.40;;;;;;;;;;5060528;28;20185;-72
2021/06/05 08:53:07;;;;;;;32.63;29.33;;;;;;;;;;5052217;28;20204;-71
2021/06/05 08:55:47;;;;;;;32.58;29.25;;;;;;;;;;5062131;28;20180;-74
2021/06/05 08:58:28;;;;;;;32.50;29.10;;;;;;;;;;5053588;28;20741;-72
2021/06/05 09:00:54;;;;;;;31.25;27.70;;;;;;;;;;5059332;28;20190;-71
2021/06/05 09:03:21;;;;;;;29.25;26.30;;;;;;;;;;5052551;28;20259;-72
2021/06/05 09:05:49;;;;;;;29.58;26.58;;;;;;;;;;5057692;28;20177;-73
2021/06/05 09:08:18;;;;;;;33.05;29.58;;;;;;;;;;5052722;28;20570;-72
2021/06/05 09:10:44;;;;;;;36.45;30.67;;;;;;;;;;5052631;28;20231;-72
2021/06/05 09:13:09;;;;;;;38.50;32.47;;;;;;;;;;5051686;28;20209;-72
2021/06/05 09:15:35;;;;;;;43.08;35.78;;;;;;;;;;5050193;28;20717;-73
2021/06/05 09:18:02;;;;;;;44.53;37.33;;;;;;;;;;5048698;28;20962;-72
2021/06/05 09:20:38;;;;;;;42.75;36.83;;;;;;;;;;5054058;28;20188;-72
2021/06/05 09:23:22;;;;;;;43.28;36.92;;;;;;;;;;5060868;28;20330;-72
2021/06/05 09:25:47;;;;;;;45.25;38.35;;;;;;;;;;5048452;28;20185;-72
2021/06/05 09:28:14;;;;;;;43.97;37.77;;;;;;;;;;5052111;28;20184;-73
2021/06/05 09:30:42;;;;;;;45.25;36.90;;;;;;;;;;5049480;28;20437;-73
2021/06/05 09:33:09;;;;;;;40.55;36.15;;;;;;;;;;5049873;28;20197;-72
2021/06/05 09:35:43;;;;;;;42.45;35.67;;;;;;;;;;5050767;28;20657;-72
2021/06/05 09:38:31;;;;;;;44.67;36.92;;;;;;;;;;5051529;28;22137;-72
2021/06/05 09:40:56;;;;;;;42.90;36.42;;;;;;;;;;5048521;28;20196;-72
2021/06/05 09:43:23;;;;;;;43.13;37.88;;;;;;;;;;5050635;28;20253;-72
2021/06/05 09:46:08;;;;;;;40.78;36.15;;;;;;;;;;5053949;28;20189;-72
2021/06/05 09:48:35;;;;;;;38.45;34.40;;;;;;;;;;5046597;28;20246;-73
2021/06/05 09:51:21;;;;;;;35.13;31.48;;;;;;;;;;5048739;28;20192;-72
2021/06/05 09:53:55;;;;;;;34.42;30.83;;;;;;;;;;5049828;28;20209;-73
2021/06/05 09:56:26;;;;;;;35.03;31.42;;;;;;;;;;5050261;28;20211;-72
2021/06/05 09:59:12;;;;;;;33.95;30.33;;;;;;;;;;5048930;28;20224;-72
2021/06/05 10:01:38;;;;;;;33.28;29.77;;;;;;;;;;5056591;28;20268;-72
2021/06/05 10:04:16;;;;;;;37.25;33.33;;;;;;;;;;5047908;28;20204;-72
2021/06/05 10:06:41;;;;;;;33.35;30.02;;;;;;;;;;5054196;28;20662;-72
2021/06/05 10:09:24;;;;;;;35.87;32.00;;;;;;;;;;5051251;28;20181;-72
2021/06/05 10:12:13;;;;;;;31.98;28.77;;;;;;;;;;5063379;28;20433;-72
2021/06/05 10:14:38;;;;;;;34.33;30.83;;;;;;;;;;5059837;28;20244;-72
2021/06/05 10:17:07;;;;;;;32.08;28.88;;;;;;;;;;5051376;28;20212;-72
2021/06/05 10:19:40;;;;;;;28.42;25.65;;;;;;;;;;5051321;28;20733;-72
2021/06/05 10:22:06;;;;;;;21.27;19.27;;;;;;;;;;5049359;28;20223;-72
2021/06/05 10:24:37;;;;;;;22.60;20.50;;;;;;;;;;5050370;28;20291;-73
2021/06/05 10:27:17;;;;;;;24.27;21.67;;;;;;;;;;5051061;28;20179;-73
2021/06/05 10:29:50;;;;;;;23.27;20.73;;;;;;;;;;5052057;28;20199;-73
2021/06/05 10:32:21;;;;;;;22.50;20.13;;;;;;;;;;5052404;28;20199;-73
2021/06/05 10:34:57;;;;;;;21.45;19.35;;;;;;;;;;5047604;28;20180;-72
2021/06/05 10:37:24;;;;;;;20.02;17.92;;;;;;;;;;5050534;28;20196;-73
2021/06/05 10:39:49;;;;;;;19.00;16.58;;;;;;;;;;5053017;28;20192;-72
2021/06/05 10:42:25;;;;;;;19.13;16.48;;;;;;;;;;5053636;28;20216;-72
2021/06/05 10:44:51;;;;;;;17.60;15.80;;;;;;;;;;5053444;28;20182;-72
2021/06/05 10:47:23;;;;;;;18.23;16.42;;;;;;;;;;5052687;28;20192;-72
2021/06/05 10:49:53;;;;;;;20.45;17.08;;;;;;;;;;5051326;28;20236;-72
2021/06/05 10:52:34;;;;;;;18.23;15.90;;;;;;;;;;5053160;28;20212;-73
2021/06/05 10:55:20;;;;;;;21.15;18.83;;;;;;;;;;5050224;28;20184;-72
2021/06/05 10:57:49;;;;;;;20.27;17.27;;;;;;;;;;5065693;28;20707;-72
2021/06/05 11:00:33;;;;;;;20.63;17.05;;;;;;;;;;5062864;28;20207;-73
2021/06/05 11:02:58;;;;;;;22.42;18.50;;;;;;;;;;5063107;28;20200;-72
2021/06/05 11:05:32;;;;;;;21.85;17.77;;;;;;;;;;5051002;28;20181;-71
2021/06/05 11:08:09;;;;;;;20.38;17.02;;;;;;;;;;5052163;28;21321;-72
2021/06/05 11:10:46;;;;;;;20.60;15.88;;;;;;;;;;5050158;28;20364;-72
2021/06/05 11:13:11;;;;;;;17.73;14.68;;;;;;;;;;5048296;28;20287;-72
2021/06/05 11:15:57;;;;;;;15.93;14.00;;;;;;;;;;5052019;28;20592;-72
2021/06/05 11:18:28;;;;;;;15.50;13.10;;;;;;;;;;5062001;28;20204;-72
2021/06/05 11:20:53;;;;;;;16.17;13.55;;;;;;;;;;5052509;28;20181;-72
2021/06/05 11:23:19;;;;;;;14.68;12.95;;;;;;;;;;5055800;28;20193;-72
2021/06/05 11:25:47;;;;;;;14.95;13.35;;;;;;;;;;5052615;28;20493;-73
2021/06/05 11:28:42;;;;;;;15.13;13.63;;;;;;;;;;5048885;28;20661;-72
2021/06/05 11:31:26;;;;;;;14.80;13.23;;;;;;;;;;5053949;28;20262;-72
2021/06/05 11:33:51;;;;;;;15.65;13.80;;;;;;;;;;5049848;28;20330;-72
2021/06/05 11:36:25;;;;;;;18.05;13.57;;;;;;;;;;5049634;28;20267;-72
2021/06/05 11:38:51;;;;;;;17.13;15.25;;;;;;;;;;5050508;28;20287;-72
2021/06/05 11:41:35;;;;;;;17.48;14.32;;;;;;;;;;5054056;28;20239;-72
2021/06/05 11:44:18;;;;;;;16.48;14.77;;;;;;;;;;5051635;28;20189;-72
2021/06/05 11:46:45;;;;;;;19.40;14.30;;;;;;;;;;5051550;28;20262;-72
2021/06/05 11:49:30;;;;;;;19.77;15.63;;;;;;;;;;5051477;28;20181;-72
2021/06/05 11:52:15;;;;;;;22.67;15.68;;;;;;;;;;5048390;28;21567;-72
2021/06/05 11:54:40;;;;;;;16.92;14.85;;;;;;;;;;5046018;28;20190;-71
2021/06/05 11:57:11;;;;;;;16.38;12.57;;;;;;;;;;5051610;28;20193;-71
2021/06/05 11:59:41;;;;;;;17.00;13.30;;;;;;;;;;5052528;28;20199;-71
2021/06/05 12:02:09;;;;;;;16.33;13.60;;;;;;;;;;5051784;28;20185;-71
2021/06/05 12:04:48;;;;;;;16.77;13.88;;;;;;;;;;5048357;28;20296;-70
2021/06/05 12:07:24;;;;;;;19.98;13.68;;;;;;;;;;5052967;28;20172;-72
2021/06/05 12:09:55;;;;;;;17.00;12.45;;;;;;;;;;5049708;28;20176;-72
2021/06/05 12:12:21;;;;;;;16.00;13.00;;;;;;;;;;5049988;28;20181;-72
2021/06/05 12:14:48;;;;;;;16.63;13.40;;;;;;;;;;5049545;28;20201;-72
2021/06/05 12:17:32;;;;;;;18.35;13.80;;;;;;;;;;5058235;28;20315;-75
2021/06/05 12:20:08;;;;;;;18.48;14.57;;;;;;;;;;5052057;28;20190;-72
2021/06/05 12:22:35;;;;;;;18.15;15.88;;;;;;;;;;5048876;28;20178;-72
2021/06/05 12:25:01;;;;;;;26.55;18.95;;;;;;;;;;5050535;28;20729;-71
2021/06/05 12:27:29;;;;;;;27.17;19.88;;;;;;;;;;5055588;28;20798;-72
2021/06/05 12:30:06;;;;;;;26.05;20.02;;;;;;;;;;5042949;28;20667;-71
2021/06/05 12:32:32;;;;;;;30.70;23.02;;;;;;;;;;5054090;28;20192;-71
2021/06/05 12:34:57;;;;;;;30.35;21.10;;;;;;;;;;5051553;28;20392;-72
2021/06/05 12:37:24;;;;;;;33.45;22.33;;;;;;;;;;5063165;28;20192;-72
2021/06/05 12:39:51;;;;;;;31.38;21.95;;;;;;;;;;5054153;28;20190;-71
2021/06/05 12:42:26;;;;;;;30.38;20.08;;;;;;;;;;5060717;28;20649;-72
2021/06/05 12:44:54;;;;;;;32.05;21.40;;;;;;;;;;5052754;28;20181;-71
2021/06/05 12:47:22;;;;;;;32.45;19.50;;;;;;;;;;5061130;28;20173;-72
2021/06/05 12:49:47;;;;;;;28.10;18.63;;;;;;;;;;5052668;28;21038;-72
2021/06/05 12:52:29;;;;;;;27.95;17.65;;;;;;;;;;5063723;28;20180;-71
2021/06/05 12:55:12;;;;;;;28.13;17.63;;;;;;;;;;5068830;28;20234;-70
2021/06/05 12:57:40;;;;;;;23.95;17.70;;;;;;;;;;5052329;28;20282;-71
2021/06/05 13:00:20;;;;;;;25.08;16.02;;;;;;;;;;5053194;28;20189;-72
2021/06/05 13:02:45;;;;;;;23.15;15.90;;;;;;;;;;5052347;28;20278;-72
2021/06/05 13:05:16;;;;;;;24.40;15.45;;;;;;;;;;5051265;28;20264;-72
2021/06/05 13:07:42;;;;;;;20.30;15.27;;;;;;;;;;5064680;28;20195;-72
2021/06/05 13:10:36;;;;;;;22.25;16.10;;;;;;;;;;5052959;28;20190;-73
2021/06/05 13:13:13;;;;;;;18.90;13.98;;;;;;;;;;5057929;28;20212;-72
2021/06/05 13:15:43;;;;;;;17.27;13.70;;;;;;;;;;5053943;28;20185;-72
2021/06/05 13:18:11;;;;;;;15.68;13.70;;;;;;;;;;5053698;28;20311;-71
2021/06/05 13:20:42;;;;;;;16.30;14.55;;;;;;;;;;5052514;28;21776;-72
2021/06/05 13:23:10;;;;;;;17.92;13.60;;;;;;;;;;5052849;28;20280;-72
2021/06/05 13:25:36;;;;;;;17.30;14.27;;;;;;;;;;5050698;28;20561;-71
2021/06/05 13:28:01;;;;;;;15.38;12.38;;;;;;;;;;5049705;28;20176;-70
2021/06/05 13:30:35;;;;;;;15.43;13.20;;;;;;;;;;5051242;28;20191;-69
2021/06/05 13:33:01;;;;;;;14.27;12.77;;;;;;;;;;5054939;28;20548;-71
2021/06/05 13:35:37;;;;;;;14.35;12.85;;;;;;;;;;5054346;28;20195;-71
2021/06/05 13:38:14;;;;;;;16.58;13.73;;;;;;;;;;5050879;28;20634;-71
2021/06/05 13:40:39;;;;;;;15.95;13.55;;;;;;;;;;5045714;28;20176;-71
2021/06/05 13:43:04;;;;;;;16.08;14.43;;;;;;;;;;5052917;28;20834;-71
2021/06/05 13:45:30;;;;;;;16.53;14.80;;;;;;;;;;5053125;28;20478;-71
2021/06/05 13:47:56;;;;;;;16.98;15.23;;;;;;;;;;5052257;28;20812;-72
2021/06/05 13:50:23;;;;;;;19.98;17.00;;;;;;;;;;5051910;28;20266;-72
2021/06/05 13:52:49;;;;;;;19.58;17.27;;;;;;;;;;5051339;28;20189;-71
2021/06/05 13:55:26;;;;;;;19.60;16.60;;;;;;;;;;5053033;28;20242;-72
2021/06/05 13:57:52;;;;;;;20.02;17.13;;;;;;;;;;5049729;28;20258;-72
2021/06/05 14:00:18;;;;;;;20.55;17.02;;;;;;;;;;5054543;28;20188;-71
2021/06/05 14:02:43;;;;;;;18.52;15.82;;;;;;;;;;5050420;28;20196;-71
2021/06/05 14:05:10;;;;;;;17.83;15.23;;;;;;;;;;5051056;28;20169;-71
2021/06/05 14:07:35;;;;;;;20.23;15.55;;;;;;;;;;5057292;28;20212;-72
2021/06/05 14:10:00;;;;;;;21.80;15.80;;;;;;;;;;5051171;28;20267;-71
2021/06/05 14:12:28;;;;;;;19.25;15.00;;;;;;;;;;5056889;28;20185;-71
2021/06/05 14:14:54;;;;;;;24.73;15.32;;;;;;;;;;5050850;28;20176;-71
2021/06/05 14:17:19;;;;;;;17.67;15.07;;;;;;;;;;5053709;28;20181;-72
2021/06/05 14:19:44;;;;;;;21.10;15.40;;;;;;;;;;5051118;28;20177;-72
2021/06/05 14:22:10;;;;;;;21.38;15.25;;;;;;;;;;5055915;28;20172;-72